createdAt,value
2022-12-01T00:01:26.758Z,94.74
2022-12-01T00:03:55.240Z,94.68
2022-12-01T00:06:23.445Z,93.80
2022-12-01T00:09:13.079Z,93.49
2022-12-01T00:11:43.187Z,93.01
2022-12-01T00:14:10.958Z,94.13
2022-12-01T00:16:40.525Z,93.27
2022-12-01T00:19:08.860Z,93.37
2022-12-01T00:21:36.615Z,93.31
2022-12-01T00:24:06.032Z,93.43
2022-12-01T00:26:33.746Z,93.98
2022-12-01T00:29:01.500Z,93.22
2022-12-01T00:31:29.515Z,93.00
2022-12-01T00:33:57.388Z,92.43
2022-12-01T00:36:25.585Z,93.29
2022-12-01T00:38:54.673Z,93.40
2022-12-01T00:41:25.594Z,94.41
2022-12-01T00:43:53.390Z,94.34
2022-12-01T00:46:21.599Z,94.45
2022-12-01T00:48:50.494Z,95.54
2022-12-01T00:51:18.223Z,95.17
2022-12-01T00:53:45.989Z,94.52
2022-12-01T00:56:13.704Z,94.54
2022-12-01T00:58:43.002Z,95.54
2022-12-01T01:01:10.767Z,95.78
2022-12-01T01:03:38.584Z,96.61
2022-12-01T01:06:07.861Z,96.41
2022-12-01T01:08:36.354Z,95.78
2022-12-01T01:11:05.100Z,96.74
2022-12-01T01:13:33.683Z,97.78
2022-12-01T01:16:05.063Z,97.72
2022-12-01T01:18:33.646Z,98.45
2022-12-01T01:21:03.501Z,98.73
2022-12-01T01:23:31.586Z,99.72
2022-12-01T01:26:02.394Z,98.81
2022-12-01T01:28:31.145Z,98.31
2022-12-01T01:30:58.989Z,97.96
2022-12-01T01:33:28.190Z,98.25
2022-12-01T01:35:59.663Z,99.03
2022-12-01T01:38:27.544Z,98.24
2022-12-01T01:40:55.621Z,98.49
2022-12-01T01:43:40.911Z,98.37
2022-12-01T01:46:09.354Z,97.54
2022-12-01T01:48:42.117Z,98.09
2022-12-01T01:51:11.033Z,98.74
2022-12-01T01:53:39.099Z,99.17
2022-12-01T01:56:08.399Z,99.63
2022-12-01T01:58:38.494Z,99.70
2022-12-01T02:01:07.396Z,100.00
2022-12-01T02:03:39.184Z,100.00
2022-12-01T02:06:09.078Z,100.00
2022-12-01T02:08:38.201Z,100.00
2022-12-01T02:11:28.877Z,100.00
2022-12-01T02:14:07.440Z,100.00
2022-12-01T02:16:45.562Z,100.00
2022-12-01T02:19:42.113Z,100.00
2022-12-01T02:22:22.982Z,100.00
2022-12-01T02:25:17.946Z,100.00
2022-12-01T02:28:08.280Z,100.00
2022-12-01T02:30:45.305Z,100.00
2022-12-01T02:33:18.900Z,100.00
2022-12-01T02:35:51.238Z,100.00
2022-12-01T02:38:29.531Z,100.00
2022-12-01T02:41:03.815Z,100.00
2022-12-01T02:43:37.375Z,100.00
2022-12-01T02:46:13.781Z,100.00
2022-12-01T02:48:45.257Z,100.00
2022-12-01T02:51:18.288Z,100.00
2022-12-01T02:53:46.336Z,100.00
2022-12-01T02:56:16.016Z,100.00
2022-12-01T02:58:44.120Z,100.00
2022-12-01T03:01:29.027Z,100.00
2022-12-01T03:04:11.909Z,100.00
2022-12-01T03:06:49.750Z,100.00
2022-12-01T03:09:27.267Z,100.00
2022-12-01T03:12:05.749Z,100.00
2022-12-01T03:14:40.643Z,100.00
2022-12-01T03:17:16.666Z,100.00
2022-12-01T03:19:49.131Z,100.00
2022-12-01T03:22:23.118Z,100.00
2022-12-01T03:24:54.331Z,100.00
2022-12-01T03:27:25.752Z,100.00
2022-12-01T03:29:56.854Z,100.00
2022-12-01T03:32:28.445Z,100.00
2022-12-01T03:35:00.190Z,100.00
2022-12-01T03:37:34.627Z,100.00
2022-12-01T03:40:06.355Z,100.00
2022-12-01T03:42:38.578Z,100.00
2022-12-01T03:47:53.882Z,100.00
2022-12-01T03:50:22.197Z,100.00
2022-12-01T03:53:03.181Z,100.00
2022-12-01T03:55:32.808Z,100.00
2022-12-01T03:58:06.449Z,100.00
2022-12-01T04:00:34.892Z,100.00
2022-12-01T04:03:05.690Z,100.00
2022-12-01T04:05:35.114Z,100.00
2022-12-01T04:08:03.096Z,100.00
2022-12-01T04:10:30.819Z,100.00
2022-12-01T04:12:59.671Z,100.00
2022-12-01T04:15:28.462Z,100.00
2022-12-01T04:17:56.271Z,100.00
2022-12-01T04:20:25.337Z,100.00
2022-12-01T04:22:52.999Z,100.00
2022-12-01T04:25:20.686Z,100.00
2022-12-01T04:27:48.823Z,100.00
2022-12-01T04:30:16.920Z,100.00
2022-12-01T04:32:45.225Z,100.00
2022-12-01T04:35:13.813Z,100.00
2022-12-01T04:37:42.881Z,100.00
2022-12-01T04:40:11.542Z,100.00
2022-12-01T04:42:39.262Z,100.00
2022-12-01T04:45:07.825Z,100.00
2022-12-01T04:47:35.609Z,100.00
2022-12-01T04:50:03.358Z,100.00
2022-12-01T04:52:35.289Z,100.00
2022-12-01T04:55:04.901Z,100.00
2022-12-01T04:57:32.664Z,100.00
2022-12-01T05:00:00.334Z,100.00
2022-12-01T05:02:28.184Z,100.00
2022-12-01T05:04:55.905Z,100.00
2022-12-01T05:07:23.601Z,100.00
2022-12-01T05:09:51.554Z,100.00
2022-12-01T05:12:21.589Z,100.00
2022-12-01T05:14:49.305Z,100.00
2022-12-01T05:17:17.263Z,100.00
2022-12-01T05:20:03.155Z,100.00
2022-12-01T05:23:03.264Z,100.00
2022-12-01T05:25:19.060Z,100.00
2022-12-01T05:27:48.038Z,100.00
2022-12-01T05:30:15.832Z,100.00
2022-12-01T05:32:43.547Z,100.00
2022-12-01T05:35:11.295Z,100.00
2022-12-01T05:37:39.063Z,100.00
2022-12-01T05:40:08.198Z,100.00
2022-12-01T05:42:35.898Z,100.00
2022-12-01T05:45:05.450Z,100.00
2022-12-01T05:47:33.261Z,100.00
2022-12-01T05:50:05.429Z,100.00
2022-12-01T05:52:34.455Z,100.00
2022-12-01T05:55:02.271Z,100.00
2022-12-01T05:57:30.014Z,100.00
2022-12-01T05:59:57.763Z,100.00
2022-12-01T06:02:27.703Z,100.00
2022-12-01T06:04:55.442Z,100.00
2022-12-01T06:07:25.193Z,100.00
2022-12-01T06:09:53.533Z,100.00
2022-12-01T06:12:21.590Z,100.00
2022-12-01T06:14:49.367Z,100.00
2022-12-01T06:17:17.096Z,100.00
2022-12-01T06:19:48.217Z,100.00
2022-12-01T06:22:16.170Z,99.40
2022-12-01T06:24:43.923Z,98.07
2022-12-01T06:27:11.645Z,98.00
2022-12-01T06:29:42.194Z,98.16
2022-12-01T06:32:10.319Z,96.82
2022-12-01T06:34:38.139Z,97.16
2022-12-01T06:37:07.329Z,96.72
2022-12-01T06:39:35.046Z,96.58
2022-12-01T06:42:03.069Z,95.99
2022-12-01T06:44:30.838Z,95.64
2022-12-01T06:46:58.522Z,95.72
2022-12-01T06:49:26.289Z,95.31
2022-12-01T06:51:54.159Z,94.90
2022-12-01T06:54:23.250Z,95.21
2022-12-01T06:56:51.055Z,93.28
2022-12-01T06:59:19.856Z,92.99
2022-12-01T07:01:48.106Z,92.81
2022-12-01T07:04:15.888Z,92.44
2022-12-01T07:06:43.660Z,91.82
2022-12-01T07:09:11.488Z,92.20
2022-12-01T07:11:40.520Z,93.16
2022-12-01T07:14:12.770Z,92.78
2022-12-01T07:16:40.538Z,93.44
2022-12-01T07:19:08.359Z,92.97
2022-12-01T07:21:36.125Z,92.50
2022-12-01T07:24:03.861Z,91.61
2022-12-01T07:26:31.702Z,91.68
2022-12-01T07:29:00.822Z,90.55
2022-12-01T07:31:28.635Z,90.64
2022-12-01T07:33:56.719Z,90.65
2022-12-01T07:36:25.033Z,89.89
2022-12-01T07:38:52.765Z,90.01
2022-12-01T07:41:20.790Z,90.75
2022-12-01T07:43:49.005Z,90.00
2022-12-01T07:46:23.279Z,90.30
2022-12-01T07:48:52.322Z,90.01
2022-12-01T07:51:20.479Z,90.23
2022-12-01T07:53:50.211Z,90.79
2022-12-01T07:56:18.830Z,90.55
2022-12-01T07:58:46.663Z,90.30
2022-12-01T08:01:17.172Z,90.10
2022-12-01T08:03:46.981Z,90.30
2022-12-01T08:06:14.733Z,90.78
2022-12-01T08:08:42.756Z,89.65
2022-12-01T08:11:13.254Z,90.19
2022-12-01T08:13:41.933Z,89.99
2022-12-01T08:16:12.985Z,89.60
2022-12-01T08:18:42.245Z,90.17
2022-12-01T08:21:13.484Z,90.74
2022-12-01T08:23:42.156Z,89.64
2022-12-01T08:26:13.960Z,89.94
2022-12-01T08:28:42.432Z,90.61
2022-12-01T08:31:12.080Z,89.63
2022-12-01T08:33:39.918Z,89.60
2022-12-01T08:36:08.636Z,90.15
2022-12-01T08:38:38.125Z,89.61
2022-12-01T08:41:08.247Z,89.51
2022-12-01T08:46:29.188Z,89.13
2022-12-01T08:48:57.812Z,88.80
2022-12-01T08:51:26.682Z,89.02
2022-12-01T08:53:57.573Z,89.51
2022-12-01T08:56:27.513Z,89.51
2022-12-01T08:58:55.610Z,88.52
2022-12-01T09:01:25.600Z,89.35
2022-12-01T09:04:05.905Z,89.77
2022-12-01T09:06:36.161Z,89.55
2022-12-01T09:09:05.704Z,90.05
2022-12-01T09:11:33.495Z,89.93
2022-12-01T09:14:01.432Z,89.86
2022-12-01T09:16:29.331Z,89.37
2022-12-01T09:18:57.261Z,89.74
2022-12-01T09:21:28.293Z,89.89
2022-12-01T09:23:56.027Z,89.32
2022-12-01T09:26:25.080Z,90.08
2022-12-01T09:28:56.678Z,90.29
2022-12-01T09:31:24.667Z,89.98
2022-12-01T09:33:56.113Z,90.67
2022-12-01T09:36:24.067Z,90.39
2022-12-01T09:38:51.941Z,90.36
2022-12-01T09:41:22.604Z,90.75
2022-12-01T09:43:57.630Z,91.30
2022-12-01T09:46:30.043Z,91.66
2022-12-01T09:49:00.914Z,91.54
2022-12-01T09:51:33.620Z,90.39
2022-12-01T09:54:02.932Z,89.88
2022-12-01T09:56:33.344Z,86.96
2022-12-01T09:59:07.206Z,88.64
2022-12-01T10:01:38.623Z,89.95
2022-12-01T10:04:11.108Z,90.02
2022-12-01T10:06:43.650Z,90.47
2022-12-01T10:09:21.874Z,91.12
2022-12-01T10:11:51.999Z,91.85
2022-12-01T10:14:22.378Z,92.00
2022-12-01T10:17:00.407Z,91.42
2022-12-01T10:19:36.095Z,90.56
2022-12-01T10:22:27.550Z,91.55
2022-12-01T10:25:02.128Z,91.64
2022-12-01T10:27:43.734Z,92.46
2022-12-01T10:30:16.947Z,91.47
2022-12-01T10:32:53.179Z,89.91
2022-12-01T10:35:24.442Z,88.79
2022-12-01T10:37:58.285Z,88.33
2022-12-01T10:40:28.034Z,88.56
2022-12-01T10:42:55.987Z,87.17
2022-12-01T10:45:27.907Z,87.46
2022-12-01T10:48:16.918Z,87.13
2022-12-01T10:50:46.286Z,86.15
2022-12-01T10:53:31.660Z,85.55
2022-12-01T10:56:09.811Z,84.45
2022-12-01T10:58:45.013Z,83.48
2022-12-01T11:01:21.021Z,83.57
2022-12-01T11:03:55.657Z,83.48
2022-12-01T11:06:26.941Z,83.01
2022-12-01T11:08:57.861Z,82.96
2022-12-01T11:11:32.774Z,82.73
2022-12-01T11:14:03.535Z,83.29
2022-12-01T11:16:44.604Z,84.11
2022-12-01T11:19:27.318Z,84.10
2022-12-01T11:21:57.298Z,83.18
2022-12-01T11:24:43.230Z,83.46
2022-12-01T11:27:18.832Z,82.54
2022-12-01T11:29:48.984Z,80.78
2022-12-01T11:32:25.303Z,79.80
2022-12-01T11:34:56.641Z,80.39
2022-12-01T11:37:29.349Z,80.92
2022-12-01T11:40:10.299Z,80.52
2022-12-01T11:42:40.275Z,80.09
2022-12-01T11:45:25.916Z,79.26
2022-12-01T11:48:05.443Z,78.35
2022-12-01T11:50:36.191Z,79.32
2022-12-01T11:53:05.264Z,78.75
2022-12-01T11:55:33.124Z,77.69
2022-12-01T11:58:05.005Z,78.71
2022-12-01T12:00:44.911Z,77.83
2022-12-01T12:03:23.405Z,78.72
2022-12-01T12:06:18.143Z,78.63
2022-12-01T12:09:09.305Z,78.63
2022-12-01T12:11:47.637Z,79.00
2022-12-01T12:14:30.475Z,78.88
2022-12-01T12:17:14.333Z,79.72
2022-12-01T12:20:07.590Z,81.78
2022-12-01T12:22:39.999Z,82.88
2022-12-01T12:25:23.928Z,82.85
2022-12-01T12:28:00.173Z,82.40
2022-12-01T12:30:30.722Z,83.14
2022-12-01T12:33:28.238Z,83.42
2022-12-01T12:36:08.113Z,83.71
2022-12-01T12:38:48.323Z,84.02
2022-12-01T12:41:29.524Z,84.48
2022-12-01T12:44:07.329Z,84.84
2022-12-01T12:46:43.433Z,84.18
2022-12-01T12:49:22.481Z,83.17
2022-12-01T12:51:56.871Z,82.08
2022-12-01T12:54:32.272Z,80.86
2022-12-01T12:57:03.980Z,80.11
2022-12-01T12:59:40.394Z,81.02
2022-12-01T13:02:15.005Z,80.82
2022-12-01T13:04:53.156Z,81.09
2022-12-01T13:07:33.892Z,81.24
2022-12-01T13:10:07.995Z,81.17
2022-12-01T13:12:44.673Z,80.92
2022-12-01T13:15:17.606Z,81.48
2022-12-01T13:17:46.835Z,82.08
2022-12-01T13:20:17.557Z,82.82
2022-12-01T13:22:49.133Z,84.09
2022-12-01T13:25:27.760Z,84.65
2022-12-01T13:27:58.057Z,84.75
2022-12-01T13:30:27.409Z,84.24
2022-12-01T13:33:03.985Z,84.62
2022-12-01T13:35:34.736Z,84.60
2022-12-01T13:38:25.815Z,84.93
2022-12-01T13:41:22.509Z,84.34
2022-12-01T13:43:58.948Z,85.27
2022-12-01T13:46:29.040Z,85.90
2022-12-01T13:48:58.729Z,85.74
2022-12-01T13:51:26.819Z,86.12
2022-12-01T13:54:03.244Z,85.67
2022-12-01T13:56:41.126Z,85.73
2022-12-01T13:59:40.191Z,86.11
2022-12-01T14:02:16.377Z,86.38
2022-12-01T14:04:44.198Z,86.25
2022-12-01T14:07:24.247Z,86.20
2022-12-01T14:09:55.734Z,86.52
2022-12-01T14:12:28.613Z,87.14
2022-12-01T14:15:00.656Z,88.00
2022-12-01T14:17:32.492Z,88.57
2022-12-01T14:20:18.828Z,88.60
2022-12-01T14:22:50.352Z,88.18
2022-12-01T14:25:30.456Z,88.28
2022-12-01T14:28:00.117Z,88.79
2022-12-01T14:31:00.543Z,89.07
2022-12-01T14:34:03.261Z,89.43
2022-12-01T14:36:39.032Z,89.63
2022-12-01T14:39:13.603Z,89.94
2022-12-01T14:41:46.569Z,89.93
2022-12-01T14:44:17.616Z,90.52
2022-12-01T14:46:50.848Z,91.10
2022-12-01T14:49:22.871Z,91.54
2022-12-01T14:51:54.934Z,91.49
2022-12-01T14:54:30.051Z,92.21
2022-12-01T14:57:06.878Z,91.93
2022-12-01T14:59:36.828Z,92.57
2022-12-01T15:02:09.243Z,92.46
2022-12-01T15:04:57.450Z,92.31
2022-12-01T15:07:25.613Z,92.32
2022-12-01T15:10:00.766Z,92.32
2022-12-01T15:12:32.045Z,92.68
2022-12-01T15:14:59.781Z,92.67
2022-12-01T15:17:31.740Z,92.89
2022-12-01T15:20:00.082Z,93.14
2022-12-01T15:22:31.301Z,93.27
2022-12-01T15:25:07.807Z,93.32
2022-12-01T15:27:36.921Z,93.37
2022-12-01T15:30:06.410Z,93.73
2022-12-01T15:32:38.788Z,93.65
2022-12-01T15:35:12.705Z,93.60
2022-12-01T15:37:43.794Z,93.93
2022-12-01T15:43:08.532Z,94.05
2022-12-01T15:45:52.007Z,94.45
2022-12-01T15:48:29.162Z,94.27
2022-12-01T15:51:14.902Z,94.52
2022-12-01T15:53:49.201Z,94.85
2022-12-01T15:56:17.902Z,94.79
2022-12-01T15:58:48.846Z,94.68
2022-12-01T16:01:19.255Z,95.03
2022-12-01T16:03:54.543Z,95.46
2022-12-01T16:06:24.358Z,95.58
2022-12-01T16:08:56.278Z,95.47
2022-12-01T16:11:24.542Z,95.44
2022-12-01T16:14:04.421Z,95.82
2022-12-01T16:16:42.695Z,95.70
2022-12-01T16:19:30.218Z,95.99
2022-12-01T16:22:04.896Z,96.14
2022-12-01T16:24:35.713Z,96.21
2022-12-01T16:27:06.245Z,96.22
2022-12-01T16:29:48.118Z,96.48
2022-12-01T16:32:20.904Z,96.90
2022-12-01T16:34:49.439Z,97.42
2022-12-01T16:37:17.832Z,97.55
2022-12-01T16:39:45.635Z,97.78
2022-12-01T16:42:15.528Z,98.26
2022-12-01T16:44:46.506Z,98.40
2022-12-01T16:47:16.344Z,98.98
2022-12-01T16:49:44.329Z,99.18
2022-12-01T16:54:59.956Z,99.13
2022-12-01T16:57:27.732Z,99.09
2022-12-01T16:59:56.802Z,98.74
2022-12-01T17:02:24.764Z,98.93
2022-12-01T17:04:52.824Z,99.02
2022-12-01T17:07:20.909Z,99.02
2022-12-01T17:09:48.731Z,99.17
2022-12-01T17:12:16.524Z,99.10
2022-12-01T17:14:44.283Z,99.28
2022-12-01T17:17:13.353Z,99.56
2022-12-01T17:19:41.086Z,99.62
2022-12-01T17:22:08.829Z,99.57
2022-12-01T17:24:36.895Z,99.85
2022-12-01T17:27:04.831Z,99.93
2022-12-01T17:29:32.747Z,99.30
2022-12-01T17:32:00.394Z,98.74
2022-12-01T17:34:29.506Z,98.62
2022-12-01T17:36:57.777Z,98.19
2022-12-01T17:39:25.572Z,98.20
2022-12-01T17:41:55.145Z,98.09
2022-12-01T17:44:22.897Z,98.45
2022-12-01T17:46:50.693Z,98.50
2022-12-01T17:49:18.536Z,98.34
2022-12-01T17:51:47.825Z,98.50
2022-12-01T17:54:15.637Z,98.61
2022-12-01T17:56:43.811Z,98.54
2022-12-01T17:59:11.719Z,98.43
2022-12-01T18:01:41.134Z,98.26
2022-12-01T18:04:09.008Z,98.19
2022-12-01T18:06:36.719Z,98.25
2022-12-01T18:09:06.325Z,98.01
2022-12-01T18:11:34.440Z,97.65
2022-12-01T18:14:02.557Z,97.36
2022-12-01T18:16:31.919Z,97.28
2022-12-01T18:19:00.817Z,96.93
2022-12-01T18:21:29.509Z,96.55
2022-12-01T18:23:59.556Z,96.37
2022-12-01T18:26:30.772Z,96.67
2022-12-01T18:29:00.586Z,96.50
2022-12-01T18:31:29.601Z,96.12
2022-12-01T18:33:59.336Z,96.32
2022-12-01T18:36:27.551Z,96.48
2022-12-01T18:38:58.343Z,96.56
2022-12-01T18:41:26.497Z,97.03
2022-12-01T18:43:55.786Z,97.20
2022-12-01T18:46:24.429Z,97.54
2022-12-01T18:48:59.440Z,97.30
2022-12-01T18:51:27.484Z,97.12
2022-12-01T18:53:55.712Z,96.61
2022-12-01T18:56:23.553Z,96.29
2022-12-01T18:58:56.729Z,95.91
2022-12-01T19:01:26.209Z,95.45
2022-12-01T19:03:55.630Z,95.30
2022-12-01T19:06:23.688Z,95.34
2022-12-01T19:08:51.408Z,94.92
2022-12-01T19:11:19.593Z,95.16
2022-12-01T19:13:47.383Z,95.28
2022-12-01T19:16:19.224Z,95.70
2022-12-01T19:18:47.223Z,96.30
2022-12-01T19:21:17.461Z,95.92
2022-12-01T19:23:46.485Z,95.99
2022-12-01T19:26:16.477Z,96.01
2022-12-01T19:28:45.590Z,95.61
2022-12-01T19:31:17.931Z,95.87
2022-12-01T19:33:46.145Z,95.82
2022-12-01T19:36:15.658Z,95.98
2022-12-01T19:38:44.479Z,96.44
2022-12-01T19:41:13.767Z,96.34
2022-12-01T19:43:43.305Z,96.42
2022-12-01T19:46:13.500Z,96.31
2022-12-01T19:48:43.375Z,96.34
2022-12-01T19:51:17.592Z,96.03
2022-12-01T19:53:45.471Z,96.10
2022-12-01T19:56:13.766Z,96.33
2022-12-01T19:58:41.642Z,96.21
2022-12-01T20:01:11.462Z,96.10
2022-12-01T20:03:40.784Z,95.93
2022-12-01T20:06:13.172Z,96.44
2022-12-01T20:08:41.427Z,96.77
2022-12-01T20:11:09.729Z,96.66
2022-12-01T20:13:39.847Z,96.16
2022-12-01T20:16:10.080Z,96.42
2022-12-01T20:18:39.083Z,96.51
2022-12-01T20:21:08.890Z,96.36
2022-12-01T20:23:38.394Z,96.98
2022-12-01T20:26:08.581Z,97.07
2022-12-01T20:28:37.739Z,97.21
2022-12-01T20:31:09.725Z,97.51
2022-12-01T20:33:37.509Z,97.09
2022-12-01T20:36:05.705Z,97.15
2022-12-01T20:38:33.419Z,96.78
2022-12-01T20:41:02.547Z,96.73
2022-12-01T20:43:30.614Z,96.49
2022-12-01T20:45:58.379Z,96.48
2022-12-01T20:48:27.689Z,96.49
2022-12-01T20:50:55.466Z,96.44
2022-12-01T20:53:23.779Z,96.28
2022-12-01T20:55:51.535Z,96.52
2022-12-01T20:58:20.663Z,96.47
2022-12-01T21:00:48.464Z,96.72
2022-12-01T21:03:16.368Z,96.59
2022-12-01T21:05:44.698Z,96.46
2022-12-01T21:08:14.456Z,96.93
2022-12-01T21:10:44.919Z,96.84
2022-12-01T21:13:37.329Z,96.98
2022-12-01T21:16:14.233Z,97.31
2022-12-01T21:18:49.770Z,97.22
2022-12-01T21:21:23.867Z,97.28
2022-12-01T21:24:04.144Z,97.31
2022-12-01T21:26:31.870Z,97.72
2022-12-01T21:29:01.232Z,98.08
2022-12-01T21:31:30.405Z,98.40
2022-12-01T21:33:58.316Z,98.50
2022-12-01T21:36:29.851Z,98.34
2022-12-01T21:39:10.665Z,98.44
2022-12-01T21:41:38.889Z,98.77
2022-12-01T21:44:14.429Z,98.19
2022-12-01T21:46:44.008Z,98.84
2022-12-01T21:49:18.672Z,98.79
2022-12-01T21:51:46.944Z,99.10
2022-12-01T21:54:17.468Z,99.14
2022-12-01T21:56:45.460Z,99.24
2022-12-01T21:59:19.880Z,99.39
2022-12-01T22:01:52.053Z,99.55
2022-12-01T22:04:22.259Z,99.59
2022-12-01T22:06:52.707Z,99.26
2022-12-01T22:09:25.286Z,99.51
2022-12-01T22:11:54.925Z,99.45
2022-12-01T22:14:25.046Z,99.35
2022-12-01T22:16:59.036Z,99.63
2022-12-01T22:19:30.779Z,99.71
2022-12-01T22:22:02.023Z,99.54
2022-12-01T22:24:40.365Z,99.32
2022-12-01T22:27:26.509Z,99.30
2022-12-01T22:29:58.304Z,99.61
2022-12-01T22:32:34.950Z,99.47
2022-12-01T22:35:22.659Z,99.76
2022-12-01T22:37:52.236Z,99.78
2022-12-01T22:40:34.545Z,99.35
2022-12-01T22:43:18.016Z,99.43
2022-12-01T22:45:47.759Z,99.76
2022-12-01T22:48:32.746Z,99.55
2022-12-01T22:51:17.962Z,99.83
2022-12-01T22:53:46.870Z,99.83
2022-12-01T22:56:28.611Z,99.73
2022-12-01T22:58:57.169Z,99.86
2022-12-01T23:01:28.792Z,99.91
2022-12-01T23:04:20.237Z,99.77
2022-12-01T23:06:59.291Z,99.62
2022-12-01T23:09:32.556Z,99.44
2022-12-01T23:12:05.840Z,99.60
2022-12-01T23:14:35.437Z,99.50
2022-12-01T23:17:08.244Z,99.56
2022-12-01T23:19:37.424Z,99.61
2022-12-01T23:22:05.464Z,99.94
2022-12-01T23:24:34.172Z,99.78
2022-12-01T23:27:02.106Z,99.82
2022-12-01T23:29:30.702Z,99.95
2022-12-01T23:31:58.570Z,100.00
2022-12-01T23:34:26.255Z,99.99
2022-12-01T23:36:55.526Z,99.87
2022-12-01T23:39:31.215Z,100.00
2022-12-01T23:41:59.765Z,100.00
2022-12-01T23:44:37.752Z,100.00
2022-12-01T23:47:16.925Z,100.00
2022-12-01T23:49:46.316Z,100.00
2022-12-01T23:52:21.000Z,100.00
2022-12-01T23:54:49.456Z,100.00
2022-12-01T23:57:20.925Z,100.00
2022-12-01T23:59:50.012Z,100.00
